KAMA/AMA METAR and TAF weather

Enter ICAO airport designator
Station Type Date Time Source
KAMA METAR 2021/05/17 22:53 UTC NOAA

KAMA 172253Z 11013KT 10SM FEW055 23/13 A2983 RMK AO2 SLP061 T02330133


Station Type Date Time Source
KAMA Decoded METAR 2021/05/17 22:53 UTC NOAA

AMARILLO INTERNATIONAL AIRPORT, TX, United States (KAMA) 35-13N 101-43W 1093M
May 17, 2021 - 06:53 PM EDT / 2021.05.17 2253 UTC
Wind: from the ESE (110 degrees) at 15 MPH (13 KT):0
Visibility: 10 mile(s):0
Sky conditions: mostly clear
Temperature: 73.9 F (23.3 C)
Dew Point: 55.9 F (13.3 C)
Relative Humidity: 53%
Pressure (altimeter): 29.83 in. Hg (1010 hPa)
ob: KAMA 172253Z 11013KT 10SM FEW055 23/13 A2983 RMK AO2 SLP061 T02330133
cycle: 23

Station Type Date Time Source
KAMA TAF 2021/05/17 21:21 UTC NOAA

TAF
AMD KAMA 172118Z 1721/1818 12015KT P6SM BKN040
TEMPO 1722/1802 VRB30G40KT 5SM TSRA BR OVC030CB
FM180200 13012KT P6SM BKN090
FM181600 16011KT P6SM SCT029

Example: see airport list